createdAt,value
2018-07-20T03:52:20.958Z,61.80
2018-07-20T03:54:23.093Z,61.60
2018-07-20T03:58:27.391Z,60.40
2018-07-20T04:00:29.476Z,62.10
2018-07-20T04:02:31.632Z,60.50
2018-07-20T04:06:36.147Z,58.80
2018-07-20T04:08:38.261Z,61.80
2018-07-20T04:10:40.337Z,60.70
2018-07-20T04:12:42.473Z,61.10
2018-07-20T04:14:44.548Z,59.50
2018-07-20T04:16:46.600Z,59.70
2018-07-20T04:18:48.668Z,57.20
2018-07-20T04:20:50.737Z,60.20
2018-07-20T04:22:52.801Z,59.20
2018-07-20T04:24:54.878Z,57.90
2018-07-20T04:26:56.909Z,58.90
2018-07-20T04:28:58.956Z,58.10
2018-07-20T04:31:01.019Z,59.20
2018-07-20T04:33:03.068Z,61.70
2018-07-20T04:35:05.566Z,60.00
2018-07-20T04:37:07.649Z,58.30
2018-07-20T04:39:11.993Z,60.30
2018-07-20T04:41:14.057Z,60.40
2018-07-20T04:43:16.102Z,57.20
2018-07-20T04:45:18.165Z,59.60
2018-07-20T04:47:20.206Z,60.60
2018-07-20T04:49:22.301Z,64.50
2018-07-20T04:51:24.325Z,62.00
2018-07-20T04:53:26.382Z,65.70
2018-07-20T04:55:28.424Z,62.80
2018-07-20T04:57:30.472Z,56.80
2018-07-20T04:59:32.562Z,59.70
2018-07-20T05:01:34.607Z,59.00
2018-07-20T05:03:36.659Z,61.90
2018-07-20T05:05:38.732Z,56.80
2018-07-20T05:07:40.780Z,56.10
2018-07-20T05:09:42.864Z,53.40
2018-07-20T05:11:44.933Z,56.20
2018-07-20T05:13:47.005Z,49.90
2018-07-20T05:15:49.076Z,56.20
2018-07-20T05:17:51.133Z,52.20
2018-07-20T05:19:53.166Z,46.60
2018-07-20T05:21:55.504Z,48.40
2018-07-20T05:23:57.568Z,45.60
2018-07-20T05:25:59.702Z,45.40
2018-07-20T05:28:01.753Z,46.90
2018-07-20T05:30:04.209Z,46.40
2018-07-20T05:32:06.273Z,44.90
2018-07-20T05:36:10.457Z,44.20
2018-07-20T05:38:12.733Z,43.40
2018-07-20T05:40:14.752Z,43.90
2018-07-20T05:42:16.838Z,43.10
2018-07-20T05:44:19.372Z,42.90
2018-07-20T05:46:21.439Z,39.60
2018-07-20T05:48:23.651Z,40.50
2018-07-20T05:50:25.719Z,39.20
2018-07-20T05:52:27.821Z,43.40
2018-07-20T05:54:29.873Z,41.10
2018-07-20T05:56:31.925Z,42.20
2018-07-20T05:58:33.997Z,42.30
2018-07-20T06:00:36.066Z,41.60
2018-07-20T06:02:38.118Z,40.60
2018-07-20T06:04:40.161Z,38.60
2018-07-20T06:06:42.229Z,37.70
2018-07-20T06:08:44.295Z,37.20
2018-07-20T06:10:46.330Z,38.20
2018-07-20T06:12:48.388Z,38.90
2018-07-20T06:14:50.489Z,37.70
2018-07-20T06:16:52.564Z,37.30
2018-07-20T06:18:54.633Z,37.30
2018-07-20T06:20:56.669Z,36.70
2018-07-20T06:22:58.752Z,34.60
2018-07-20T06:25:00.822Z,37.60
2018-07-20T06:27:02.901Z,33.00
2018-07-20T06:29:04.948Z,34.10
2018-07-20T06:31:07.071Z,35.80
2018-07-20T06:33:09.143Z,37.80
2018-07-20T06:35:11.189Z,34.70
2018-07-20T06:37:13.250Z,34.10
2018-07-20T06:39:15.311Z,31.80
2018-07-20T06:41:17.394Z,32.80
2018-07-20T06:43:19.436Z,33.30
2018-07-20T06:45:21.504Z,33.60
2018-07-20T06:47:23.607Z,32.50
2018-07-20T06:49:25.663Z,31.70
2018-07-20T06:51:27.733Z,33.50
2018-07-20T06:53:29.781Z,33.00
2018-07-20T06:55:31.852Z,29.90
2018-07-20T06:57:33.948Z,27.80
2018-07-20T06:59:36.033Z,29.10
2018-07-20T07:01:38.102Z,28.60
2018-07-20T07:03:40.161Z,29.30
2018-07-20T07:05:42.238Z,28.40
2018-07-20T07:07:44.305Z,29.10
2018-07-20T07:09:46.403Z,28.90
2018-07-20T07:11:48.477Z,28.90
2018-07-20T07:13:50.594Z,26.10
2018-07-20T07:15:52.673Z,29.00
2018-07-20T07:17:54.739Z,27.60
2018-07-20T07:19:56.837Z,27.80
2018-07-20T07:21:58.929Z,27.00
2018-07-20T07:24:00.980Z,26.80
2018-07-20T07:26:03.158Z,27.60
2018-07-20T07:28:05.203Z,26.20
2018-07-20T07:30:07.331Z,22.70
2018-07-20T07:32:09.400Z,24.40
2018-07-20T07:34:11.493Z,24.80
2018-07-20T07:36:13.560Z,23.90
2018-07-20T07:38:15.653Z,24.30
2018-07-20T07:40:17.723Z,24.70
2018-07-20T07:42:19.804Z,24.20
2018-07-20T07:44:21.908Z,24.60
2018-07-20T07:46:23.976Z,24.60
2018-07-20T07:48:26.103Z,23.60
2018-07-20T07:50:28.201Z,24.90
2018-07-20T07:52:30.289Z,24.60
2018-07-20T07:54:32.386Z,23.20
2018-07-20T07:56:34.445Z,22.80
2018-07-20T07:58:36.535Z,23.50
2018-07-20T08:00:38.609Z,24.60
2018-07-20T08:02:40.669Z,21.60
2018-07-20T08:04:42.797Z,23.20
2018-07-20T08:06:44.940Z,23.10
2018-07-20T08:08:47.002Z,21.80
2018-07-20T08:10:49.101Z,21.80
2018-07-20T08:12:52.000Z,22.50
2018-07-20T08:14:54.029Z,22.10
2018-07-20T08:16:56.126Z,20.90
2018-07-20T08:18:58.248Z,21.30
2018-07-20T08:21:00.365Z,20.20
2018-07-20T08:23:02.455Z,21.60
2018-07-20T08:25:04.675Z,21.60
2018-07-20T08:27:06.740Z,22.20
2018-07-20T08:29:08.817Z,19.40
2018-07-20T08:31:10.957Z,21.80
2018-07-20T08:33:13.029Z,21.80
2018-07-20T08:35:15.102Z,18.70
2018-07-20T08:37:17.177Z,19.00
2018-07-20T08:39:19.217Z,19.80
2018-07-20T08:41:21.400Z,18.60
2018-07-20T08:43:23.486Z,17.50
2018-07-20T08:45:25.533Z,17.80
2018-07-20T08:47:27.679Z,18.80
2018-07-20T08:51:31.888Z,18.00
2018-07-20T08:53:33.976Z,18.30
2018-07-20T08:55:36.031Z,17.10
2018-07-20T08:57:38.114Z,16.30
2018-07-20T08:59:40.181Z,19.00
2018-07-20T09:01:42.338Z,17.00
2018-07-20T09:03:44.402Z,14.60
2018-07-20T09:05:46.487Z,13.20
2018-07-20T09:07:48.578Z,16.10
2018-07-20T09:09:50.717Z,14.40
2018-07-20T09:11:52.858Z,14.40
2018-07-20T09:13:55.004Z,12.20
2018-07-20T09:15:56.992Z,11.40
2018-07-20T09:17:59.069Z,10.00
2018-07-20T09:20:01.164Z,11.70
2018-07-20T09:22:03.377Z,12.90
2018-07-20T09:24:05.496Z,10.20
2018-07-20T09:26:07.593Z,11.30
2018-07-20T09:28:09.784Z,8.80
2018-07-20T09:30:11.882Z,9.90
2018-07-20T09:32:13.968Z,13.00
2018-07-20T09:34:16.028Z,9.40
2018-07-20T09:36:18.125Z,8.20
2018-07-20T09:38:20.206Z,8.90
2018-07-20T09:40:22.264Z,10.00
2018-07-20T09:42:24.352Z,7.80
2018-07-20T09:44:26.494Z,7.80
2018-07-20T09:46:28.589Z,7.20
2018-07-20T09:48:30.705Z,7.00
2018-07-20T09:50:32.770Z,7.80
2018-07-20T09:52:34.833Z,7.80
2018-07-20T09:54:36.935Z,6.20
2018-07-20T09:56:38.992Z,5.50
2018-07-20T09:58:41.129Z,10.30
2018-07-20T10:00:48.845Z,5.90
2018-07-20T10:02:50.904Z,6.90
2018-07-20T10:04:53.126Z,6.00
2018-07-20T10:06:55.173Z,7.50
2018-07-20T10:08:57.229Z,7.50
2018-07-20T10:10:59.340Z,5.40
2018-07-20T10:13:01.411Z,4.80
2018-07-20T10:15:03.610Z,4.50
2018-07-20T10:17:05.967Z,4.90
2018-07-20T10:19:08.134Z,5.60
2018-07-20T10:21:10.194Z,2.70
2018-07-20T10:23:12.293Z,9.10
2018-07-20T10:25:14.358Z,2.40
2018-07-20T10:27:16.450Z,3.50
2018-07-20T10:29:18.517Z,5.50
2018-07-20T10:31:20.601Z,4.60
2018-07-20T10:33:22.666Z,2.80
2018-07-20T10:35:24.749Z,2.30
2018-07-20T10:37:26.810Z,3.20
2018-07-20T10:39:28.897Z,2.30
2018-07-20T10:41:30.960Z,3.00
2018-07-20T10:43:33.089Z,4.60
2018-07-20T10:45:35.146Z,5.00
2018-07-20T10:47:37.245Z,3.30
2018-07-20T10:49:39.309Z,1.80
2018-07-20T10:51:41.368Z,1.90
2018-07-20T10:53:43.456Z,1.50
2018-07-20T10:55:45.513Z,1.80
2018-07-20T10:57:47.973Z,3.00
2018-07-20T10:59:50.025Z,1.00
2018-07-20T11:01:52.103Z,1.20
2018-07-20T11:03:54.188Z,1.40
2018-07-20T11:05:56.245Z,1.00
2018-07-20T11:07:58.346Z,1.00
2018-07-20T11:10:00.334Z,1.00
2018-07-20T11:12:02.385Z,1.00
2018-07-20T11:14:04.436Z,1.00
2018-07-20T11:16:06.497Z,2.90
2018-07-20T11:18:08.573Z,1.00
2018-07-20T11:20:10.650Z,1.00
2018-07-20T11:22:12.806Z,1.50
2018-07-20T11:24:14.839Z,1.70
2018-07-20T11:26:16.896Z,1.00
2018-07-20T11:28:18.973Z,1.00
2018-07-20T11:30:21.025Z,1.00
2018-07-20T11:32:23.085Z,1.00
2018-07-20T11:34:25.306Z,1.00
2018-07-20T11:36:27.352Z,1.00
2018-07-20T11:38:29.393Z,1.00
2018-07-20T11:40:31.465Z,1.00
2018-07-20T11:42:33.526Z,1.00
2018-07-20T11:44:36.181Z,1.00
2018-07-20T11:46:38.242Z,1.00
2018-07-20T11:48:40.321Z,1.00
2018-07-20T11:50:42.382Z,1.00
2018-07-20T11:52:44.424Z,1.00
2018-07-20T11:54:46.476Z,1.00
2018-07-20T11:56:48.520Z,1.00
2018-07-20T11:58:50.597Z,1.00
2018-07-20T12:02:54.789Z,1.00
2018-07-20T12:04:56.837Z,1.00
2018-07-20T12:06:58.896Z,1.00
2018-07-20T12:09:00.973Z,1.00
2018-07-20T12:11:03.048Z,1.00
2018-07-20T12:13:05.105Z,1.00
2018-07-20T12:15:07.190Z,1.00
2018-07-20T12:17:09.680Z,1.00
2018-07-20T12:19:11.748Z,1.00
2018-07-20T12:21:13.969Z,1.00
2018-07-20T12:23:16.045Z,1.00
2018-07-20T12:25:18.128Z,1.00
2018-07-20T12:27:20.239Z,1.00
2018-07-20T12:29:22.333Z,1.00
2018-07-20T12:33:26.599Z,1.00
2018-07-20T12:35:28.657Z,1.00
2018-07-20T12:37:30.732Z,1.00
2018-07-20T12:39:32.781Z,1.00
2018-07-20T12:41:34.818Z,1.00
2018-07-20T12:43:36.922Z,1.00
2018-07-20T12:45:39.046Z,1.00
2018-07-20T12:47:41.138Z,1.00
2018-07-20T12:49:43.263Z,1.00
2018-07-20T12:51:45.321Z,1.00
2018-07-20T12:55:49.539Z,1.00
2018-07-20T12:57:51.654Z,1.00
2018-07-20T12:59:53.706Z,1.00
2018-07-20T13:01:55.776Z,1.00
2018-07-20T13:03:57.839Z,1.00
2018-07-20T13:05:59.909Z,1.00
2018-07-20T13:08:01.976Z,1.00
2018-07-20T13:10:04.637Z,1.00
2018-07-20T13:12:06.774Z,1.00
2018-07-20T13:14:09.700Z,1.00
2018-07-20T13:16:11.764Z,1.00
2018-07-20T13:18:13.898Z,1.00
2018-07-20T13:20:15.905Z,1.00
2018-07-20T13:22:17.975Z,1.00
2018-07-20T13:24:20.014Z,1.00
2018-07-20T13:26:22.055Z,1.00
2018-07-20T13:28:24.106Z,1.00
2018-07-20T13:30:26.161Z,1.00
2018-07-20T13:32:28.245Z,1.00
2018-07-20T13:34:30.313Z,1.00
2018-07-20T13:36:32.384Z,1.00
2018-07-20T13:38:34.445Z,1.00
2018-07-20T13:40:36.477Z,1.00
2018-07-20T13:42:38.512Z,1.00
2018-07-20T13:44:40.574Z,1.00
2018-07-20T13:46:42.690Z,1.00
2018-07-20T13:48:44.914Z,1.00
2018-07-20T13:50:46.968Z,1.00
2018-07-20T13:52:49.137Z,1.00
2018-07-20T13:54:51.115Z,1.00
2018-07-20T13:56:53.184Z,1.00
2018-07-20T13:58:55.249Z,1.00
2018-07-20T14:00:58.384Z,1.00
2018-07-20T14:03:00.445Z,1.00
2018-07-20T14:05:02.519Z,1.00
2018-07-20T14:07:04.568Z,1.00
2018-07-20T14:09:07.721Z,1.00
2018-07-20T14:11:09.797Z,1.00
2018-07-20T14:13:11.852Z,1.00
2018-07-20T14:15:13.928Z,1.00
2018-07-20T14:17:16.010Z,1.00
2018-07-20T14:21:20.161Z,1.00
2018-07-20T14:23:22.413Z,1.00
2018-07-20T14:25:24.505Z,1.00
2018-07-20T14:27:26.559Z,1.00
2018-07-20T14:29:28.617Z,1.00
2018-07-20T14:31:30.769Z,1.00
2018-07-20T14:33:32.754Z,1.00
2018-07-20T14:35:34.833Z,1.00
2018-07-20T14:37:36.956Z,1.00
2018-07-20T14:39:39.036Z,1.00
2018-07-20T14:41:41.440Z,1.00
2018-07-20T14:43:43.497Z,1.00
2018-07-20T14:45:45.564Z,1.00
2018-07-20T14:47:47.641Z,1.00
2018-07-20T14:49:49.782Z,1.00
2018-07-20T14:51:51.878Z,1.00
2018-07-20T14:53:53.965Z,1.00
2018-07-20T14:55:56.089Z,1.00
2018-07-20T14:57:58.218Z,1.00
2018-07-20T15:00:00.314Z,1.00
2018-07-20T15:02:02.394Z,1.00
2018-07-20T15:04:04.636Z,1.70
2018-07-20T15:06:08.006Z,1.00
2018-07-20T15:08:10.105Z,1.00
2018-07-20T15:10:12.285Z,5.80
2018-07-20T15:12:15.280Z,1.00
2018-07-20T15:14:17.321Z,1.00
2018-07-20T15:16:19.377Z,1.00
2018-07-20T15:18:21.535Z,1.00
2018-07-20T15:20:24.317Z,1.00
2018-07-20T15:22:26.422Z,1.00
2018-07-20T15:24:29.646Z,1.00
2018-07-20T15:26:33.999Z,1.00
2018-07-20T15:28:42.942Z,1.00
2018-07-20T15:30:45.007Z,1.00
2018-07-20T15:32:47.041Z,1.00
2018-07-20T15:34:49.819Z,1.00
2018-07-20T15:36:51.972Z,1.00
2018-07-20T15:38:54.084Z,1.00
2018-07-20T15:40:56.129Z,1.00
2018-07-20T15:42:58.252Z,1.00
2018-07-20T15:45:02.017Z,1.00
2018-07-20T15:47:04.293Z,1.00
2018-07-20T15:49:06.352Z,1.00
2018-07-20T15:51:08.430Z,1.00
2018-07-20T15:53:38.026Z,1.00
2018-07-20T15:55:13.450Z,1.00
2018-07-20T15:57:16.540Z,1.00
2018-07-20T15:59:21.794Z,1.00
2018-07-20T16:01:23.890Z,1.00
2018-07-20T16:05:28.112Z,1.00
2018-07-20T16:07:30.180Z,1.00
2018-07-20T16:09:32.242Z,1.00
2018-07-20T16:11:34.670Z,1.00
2018-07-20T16:13:36.720Z,1.00
2018-07-20T16:15:39.181Z,1.00
2018-07-20T16:17:41.305Z,1.00
2018-07-20T16:19:44.603Z,1.00
2018-07-20T16:21:48.029Z,1.00
2018-07-20T16:23:50.420Z,1.00
2018-07-20T16:25:52.805Z,1.00
2018-07-20T16:27:55.600Z,1.00
2018-07-20T16:29:57.698Z,1.00
2018-07-20T16:31:59.816Z,1.00
2018-07-20T16:34:01.892Z,1.00
2018-07-20T16:36:03.954Z,1.00
2018-07-20T16:38:06.124Z,1.00
2018-07-20T16:40:08.193Z,1.00
2018-07-20T16:42:10.244Z,1.00
2018-07-20T16:44:12.308Z,1.00
2018-07-20T16:48:16.650Z,1.00
2018-07-20T16:50:18.720Z,1.00
2018-07-20T16:52:20.800Z,1.00
2018-07-20T16:54:22.888Z,1.00
2018-07-20T16:56:24.948Z,1.00
2018-07-20T16:58:28.477Z,1.00
2018-07-20T17:00:30.824Z,1.00
2018-07-20T17:04:35.114Z,1.00
2018-07-20T17:06:38.760Z,1.00
2018-07-20T17:08:40.876Z,1.00
2018-07-20T17:10:42.943Z,1.00
2018-07-20T17:12:45.004Z,1.00
2018-07-20T17:17:22.779Z,1.00
2018-07-20T17:19:24.838Z,1.00
2018-07-20T17:21:26.943Z,1.00
2018-07-20T17:23:29.109Z,1.00
2018-07-20T17:25:31.168Z,1.00
2018-07-20T17:27:37.223Z,1.00
2018-07-20T17:29:39.305Z,1.00
2018-07-20T17:31:41.373Z,1.00
2018-07-20T17:33:43.466Z,1.00
2018-07-20T17:35:49.059Z,1.00
2018-07-20T17:37:51.158Z,1.00
2018-07-20T17:39:54.773Z,1.00
2018-07-20T17:41:56.875Z,1.00
2018-07-20T17:43:58.965Z,1.00
2018-07-20T17:46:01.038Z,1.00
2018-07-20T17:48:03.076Z,1.00
2018-07-20T17:50:06.351Z,1.00
2018-07-20T17:52:10.396Z,1.00
2018-07-20T17:54:12.728Z,1.00
2018-07-20T17:56:15.469Z,1.00
2018-07-20T17:58:17.523Z,1.00
2018-07-20T18:00:19.624Z,1.00
2018-07-20T18:02:21.750Z,1.00
2018-07-20T18:04:23.790Z,1.20
2018-07-20T18:06:25.848Z,1.00
2018-07-20T18:08:27.906Z,1.00
2018-07-20T18:10:30.029Z,1.00
2018-07-20T18:12:32.060Z,1.00
2018-07-20T18:14:34.141Z,1.00
2018-07-20T18:16:36.239Z,1.00
2018-07-20T18:18:38.285Z,1.00
2018-07-20T18:20:40.340Z,1.20
2018-07-20T18:22:42.394Z,1.00
2018-07-20T18:24:44.456Z,1.00
2018-07-20T18:26:46.520Z,1.00
2018-07-20T18:28:48.580Z,2.00
2018-07-20T18:30:51.173Z,1.00
2018-07-20T18:32:53.298Z,1.00
2018-07-20T18:34:55.344Z,1.40
2018-07-20T18:36:57.397Z,1.00
2018-07-20T18:38:59.489Z,1.70
2018-07-20T18:41:02.499Z,1.90
2018-07-20T18:43:04.597Z,3.40
2018-07-20T18:45:07.278Z,2.70
2018-07-20T18:47:09.388Z,1.60
2018-07-20T18:49:11.479Z,1.10
2018-07-20T18:51:13.532Z,2.10
2018-07-20T18:53:15.627Z,1.70
2018-07-20T18:55:17.692Z,2.00
2018-07-20T18:57:20.557Z,1.30
2018-07-20T18:59:22.680Z,1.50
2018-07-20T19:01:24.762Z,1.40
2018-07-20T19:03:26.885Z,3.10
2018-07-20T19:05:28.941Z,4.40
2018-07-20T19:07:31.000Z,3.00
2018-07-20T19:09:33.109Z,2.90
2018-07-20T19:11:35.376Z,2.90
2018-07-20T19:13:37.447Z,3.30
2018-07-20T19:15:39.544Z,4.20
2018-07-20T19:17:41.654Z,5.60
2018-07-20T19:19:43.742Z,5.00
2018-07-20T19:21:45.813Z,5.20
2018-07-20T19:23:47.949Z,4.70
2018-07-20T19:25:50.017Z,4.90
2018-07-20T19:27:52.053Z,5.80
2018-07-20T19:29:54.216Z,8.40
2018-07-20T19:31:56.301Z,6.10
2018-07-20T19:33:58.373Z,6.10
2018-07-20T19:36:00.443Z,7.30
2018-07-20T19:38:02.593Z,6.20
2018-07-20T19:40:04.721Z,5.90
2018-07-20T19:42:06.816Z,5.70
2018-07-20T19:44:08.900Z,5.90
2018-07-20T19:46:10.996Z,5.90
2018-07-20T19:48:13.058Z,4.70
2018-07-20T19:50:15.181Z,5.80
2018-07-20T19:52:17.256Z,6.20
2018-07-20T19:54:19.391Z,6.60
2018-07-20T19:56:21.511Z,5.70
2018-07-20T19:58:23.618Z,5.80
2018-07-20T20:00:25.696Z,7.50
2018-07-20T20:02:27.760Z,5.80
2018-07-20T20:04:29.828Z,5.70
2018-07-20T20:06:31.928Z,7.60
2018-07-20T20:08:34.029Z,8.00
2018-07-20T20:10:36.125Z,8.00
2018-07-20T20:12:38.240Z,7.90
2018-07-20T20:14:40.418Z,8.60
2018-07-20T20:16:42.499Z,9.30
2018-07-20T20:24:00.359Z,8.80
2018-07-20T20:26:02.438Z,9.10
2018-07-20T20:28:04.529Z,9.00
2018-07-20T20:30:06.578Z,10.60
2018-07-20T20:32:09.065Z,10.10
2018-07-20T20:34:11.084Z,9.80
2018-07-20T20:36:13.092Z,10.30
2018-07-20T20:38:15.094Z,10.40
2018-07-20T20:40:17.113Z,10.60
2018-07-20T20:42:19.125Z,9.80
2018-07-20T20:44:21.144Z,12.00
2018-07-20T20:46:23.164Z,11.40
2018-07-20T20:48:25.179Z,11.80
2018-07-20T20:50:27.205Z,11.70
2018-07-20T20:52:29.214Z,12.30
2018-07-20T20:54:31.228Z,12.00
2018-07-20T20:56:33.248Z,11.20
2018-07-20T20:58:35.279Z,12.40
2018-07-20T21:00:37.304Z,11.90
2018-07-20T21:02:39.322Z,12.10
2018-07-20T21:04:41.324Z,12.50
2018-07-20T21:06:43.369Z,13.40
2018-07-20T21:08:45.409Z,13.00
2018-07-20T21:10:47.421Z,12.60
2018-07-20T21:12:49.429Z,13.50
2018-07-20T21:14:51.429Z,13.50
2018-07-20T21:16:53.466Z,13.40
2018-07-20T21:18:55.460Z,13.50
2018-07-20T21:20:57.477Z,14.40
2018-07-20T21:22:59.509Z,13.40
2018-07-20T21:25:01.521Z,12.80
2018-07-20T21:27:03.529Z,14.40
2018-07-20T21:29:05.539Z,13.70
2018-07-20T21:31:07.573Z,16.00
2018-07-20T21:33:09.576Z,13.60
2018-07-20T21:35:11.577Z,13.30
2018-07-20T21:37:13.653Z,13.30
2018-07-20T21:39:15.654Z,14.00
2018-07-20T21:41:17.663Z,13.90
2018-07-20T21:43:19.663Z,13.70
2018-07-20T21:45:21.683Z,13.10
2018-07-20T21:47:23.720Z,14.20
2018-07-20T21:49:25.713Z,15.10
2018-07-20T21:51:27.729Z,14.90
2018-07-20T21:53:29.742Z,13.10
2018-07-20T21:55:31.791Z,14.90
2018-07-20T21:57:33.797Z,14.60
2018-07-20T21:59:35.817Z,14.60
2018-07-20T22:01:37.824Z,14.60
2018-07-20T22:03:39.841Z,13.40
2018-07-20T22:05:41.872Z,14.50
2018-07-20T22:07:43.917Z,14.40
2018-07-20T22:09:45.920Z,13.80
2018-07-20T22:11:48.717Z,14.60
2018-07-20T22:13:50.739Z,13.80
2018-07-20T22:15:52.770Z,14.20
2018-07-20T22:17:54.794Z,14.00
2018-07-20T22:19:56.830Z,13.20
2018-07-20T22:21:58.853Z,14.10
2018-07-20T22:24:00.852Z,14.80
2018-07-20T22:26:02.857Z,13.50
2018-07-20T22:28:04.881Z,13.70
2018-07-20T22:30:08.313Z,14.20
2018-07-20T22:32:10.388Z,14.50
2018-07-20T22:34:12.410Z,14.00
2018-07-20T22:36:14.423Z,13.00
2018-07-20T22:38:16.425Z,13.10
2018-07-20T22:40:18.440Z,14.20
2018-07-20T22:42:20.453Z,14.80
2018-07-20T22:44:22.476Z,14.10
2018-07-20T22:46:24.483Z,14.60
2018-07-20T22:48:26.500Z,12.80
2018-07-20T22:50:28.508Z,13.90
2018-07-20T22:52:30.528Z,12.40
2018-07-20T22:54:32.528Z,14.10
2018-07-20T22:56:34.556Z,14.20
2018-07-20T22:58:36.564Z,13.70
2018-07-20T23:00:38.585Z,13.90
2018-07-20T23:02:40.716Z,14.30
2018-07-20T23:04:42.800Z,13.00
2018-07-20T23:06:44.822Z,14.00
2018-07-20T23:08:46.862Z,13.30
2018-07-20T23:10:48.880Z,13.60
2018-07-20T23:12:50.923Z,13.60
2018-07-20T23:14:52.943Z,12.80
2018-07-20T23:16:54.968Z,14.40
2018-07-20T23:20:59.080Z,14.20
2018-07-20T23:23:01.108Z,12.40
2018-07-20T23:25:03.306Z,12.80
2018-07-20T23:27:05.318Z,13.30
2018-07-20T23:29:07.346Z,13.00
2018-07-20T23:31:09.357Z,13.80
2018-07-20T23:33:11.364Z,13.20
2018-07-20T23:35:13.368Z,13.60
2018-07-20T23:37:15.381Z,13.70
2018-07-20T23:39:17.379Z,12.20
2018-07-20T23:41:19.397Z,14.40
2018-07-20T23:43:21.422Z,13.00
2018-07-20T23:45:23.433Z,12.80
2018-07-20T23:47:25.449Z,13.30
2018-07-20T23:49:27.473Z,14.20
2018-07-20T23:51:29.656Z,13.20
2018-07-20T23:53:31.673Z,14.00
2018-07-20T23:55:33.688Z,12.40
2018-07-20T23:57:35.759Z,13.20
2018-07-20T23:59:37.801Z,11.90
